Custom Search

Airport METAR Reports

 

YMAV - Avalon Airport, Australia
Distance from station: 0 0km
Updated: 27/03/2017 11:41
Clear
Clear
 Wind from N
Wind: N 54 km/h, Gust: 72 km/h
Temperature: 33°C
Dew Point: 15°C
Humidity: 34%
Barometer: 1002 hPa
Clouds: Clear
Visibility: 10 km
2017/03/27 00:41 YMAV 270041Z AUTO 35029G39KT 9999 // NCD 33/15 Q1002 RF00.0/000.0
YMML - Melbourne Intl A, Australia
Distance from station: NE 50km
Updated: 27/03/2017 11:33
Clear
Clear
 Wind from N
Wind: N 57 km/h, Gust: 76 km/h
Temperature: 29°C
Heat Index: 28°C
Dew Point: 14°C
Humidity: 40%
Barometer: 1004 hPa
Summary: Clear
Visibility: greater than 10 km
2017/03/27 00:33 YMML 270033Z 36031G41KT CAVOK 29/14 Q1004 FM0300 26020G38KT 9999 -SHRA SCT015 BKN090 FM0033 MOD/SEV TURB BLW 5000FT
YMEN - Melbourne/Essend, Australia
Distance from station: NE 51km
Updated: 27/03/2017 11:30
Clear
Clear
 Wind from N
Wind: N 54 km/h, Gust: 74 km/h
Temperature: 30°C
Dew Point: 14°C
Humidity: 38%
Barometer: 1003 hPa
Clouds: Clear
Visibility: 10 km
2017/03/27 00:30 YMEN 270030Z AUTO 36029G40KT 9999 // NCD 30/14 Q1003
 
YWGT - Wangaratta Arp, Australia
Distance from station: NE 241km
Updated: 27/03/2017 11:00
Clear
Clear
 Wind from N
Wind: N 26 km/h
Temperature: 28°C
Heat Index: 28°C
Dew Point: 17°C
Humidity: 51%
Barometer: 1011 hPa
Clouds: Clear
Visibility: 10 km
2017/03/27 00:00 YWGT 270000Z AUTO 01014KT 9999 // NCD 28/17 Q1011
YMAY - Albury Airport, Australia
Distance from station: NE 308km
Updated: 27/03/2017 11:00
Clear
Clear
 Wind from ENE
Wind: ENE 20 km/h
Temperature: 28°C
Heat Index: 28°C
Dew Point: 17°C
Humidity: 51%
Barometer: 1012 hPa
Clouds: Clear
Visibility: 10 km
2017/03/27 00:00 YMAY 270000Z AUTO 06011KT 9999 // NCD 28/17 Q1012
YMTG - Mount Gambier, Australia
Distance from station: W 326km
Updated: 27/03/2017 11:00
Light rain, Showers, Overcast
Light rain, Showers, Overcast
 Wind from W
Wind: W 19 km/h
Temperature: 15°C
Dew Point: 13°C
Humidity: 88%
Barometer: 1010 hPa
Summary: Light rain, Showers
Clouds: Overcast
Visibility: 10 km
Cloud details: Partly cloudy 1433 m
Overcast 3200 m
2017/03/27 00:00 YMTG 270000Z AUTO 28010KT 9999 -SHRA SCT047 OVC105 15/13 Q1010 RESHRA
 
YNAR - Narrandera, Australia
Distance from station: NNE 413km
Updated: 27/03/2017 11:00

 Wind from N
Wind: N 33 km/h
Temperature: 31°C
Heat Index: 32°C
Dew Point: 18°C
Humidity: 46%
Barometer: 1011 hPa
2017/03/27 00:00 YNAR 270000Z AUTO 36018KT //// // ////// 31/18 Q1011
YSWG - Wagga Wagga(Cv/M, Australia
Distance from station: NE 418km
Updated: 27/03/2017 11:00
Clear
Clear
 Wind from N
Wind: N 20 km/h
Temperature: 28°C
Heat Index: 28°C
Dew Point: 15°C
Humidity: 45%
Barometer: 1013 hPa
Summary: Clear
Visibility: greater than 10 km
2017/03/27 00:00 YSWG 270000Z 01011KT CAVOK 28/15 Q1013
YCOM - Cooma Snowy Mtns, Australia
Distance from station: ENE 441km
Updated: 27/03/2017 11:00
Partly cloudy
Partly cloudy
 Wind from NW
Wind: NW 17 km/h
Temperature: 25°C
Dew Point: 14°C
Humidity: 51%
Barometer: 1015 hPa
Clouds: Partly cloudy
Visibility: 10 km
Cloud details: Partly cloudy 3353 m
2017/03/27 00:00 YCOM 270000Z AUTO 31009KT 9999 // SCT110 25/14 Q1015
 
YGTH - Griffith Arpt, Australia
Distance from station: NNE 444km
Updated: 27/03/2017 11:00
Clear
Clear
 Wind from N
Wind: N 26 km/h
Temperature: 31°C
Heat Index: 32°C
Dew Point: 18°C
Humidity: 46%
Barometer: 1011 hPa
Clouds: Clear
Visibility: 10 km
2017/03/27 00:00 YGTH 270000Z AUTO 36014KT 9999 // NCD 31/18 Q1011
YMLT - Launceston Airpo, Australia
Distance from station: SSE 451km
Updated: 27/03/2017 11:30
Mostly cloudy
Mostly cloudy
 Wind from NW
Wind: NW 28 km/h
Temperature: 23°C
Dew Point: 15°C
Humidity: 61%
Barometer: 1003 hPa
Clouds: Mostly cloudy
Visibility: 10 km
Cloud details: Mostly cloudy 3658 m
2017/03/27 00:30 YMLT 270030Z AUTO 31015KT 9999 // BKN120 23/15 Q1003 RF00.0/000.0
YMIA - Mildura Arpt, Australia
Distance from station: NNW 474km
Updated: 27/03/2017 11:30
Clear
Clear
 Wind from WSW
Wind: WSW 28 km/h
Temperature: 29°C
Heat Index: 29°C
Dew Point: 15°C
Humidity: 43%
Barometer: 1010 hPa
Clouds: Clear
Visibility: 5 km
2017/03/27 00:30 YMIA 270030Z AUTO 24015KT 5000 // NCD 29/15 Q1010
 
YMER - Merimbula Arpt, Australia
Distance from station: ENE 494km
Updated: 27/03/2017 11:00
Clear
Clear
 Wind from NNE
Wind: NNE 9 km/h
Temperature: 25°C
Dew Point: 18°C
Humidity: 65%
Barometer: 1010 hPa
Clouds: Clear
Visibility: 10 km
2017/03/27 00:00 YMER 270000Z AUTO 03005KT 350V060 9999 // NCD 25/18 Q1010
YSCB - Canberra (civ/Mi, Australia
Distance from station: NE 518km
Updated: 27/03/2017 11:30
Few Clouds
Few Clouds
 Wind from WNW
Wind: WNW 13 km/h
Temperature: 24°C
Dew Point: 16°C
Humidity: 61%
Barometer: 1016 hPa
Clouds: Few Clouds
Visibility: 10 km
Cloud details: Few Clouds 914 m
2017/03/27 00:30 YSCB 270030Z 30007KT 9999 FEW030 24/16 Q1016 NOSIG
YMHB - Hobart/Tasmania, Australia
Distance from station: SSE 590km
Updated: 27/03/2017 11:30
Nearby showers, Mostly cloudy
Nearby showers, Mostly cloudy
 Wind from N
Wind: N 26 km/h
Temperature: 24°C
Dew Point: 15°C
Humidity: 57%
Barometer: 998 hPa
Summary: Nearby Showers
Clouds: Mostly cloudy
Visibility: 10 km
Cloud details: Few Clouds 914 m
Mostly cloudy 4267 m
Mostly cloudy 8230 m
2017/03/27 00:30 YMHB 270030Z 01014KT 9999 VCSH FEW030 BKN140 BKN270 24/15 Q0998